Time;durP1;ratioP1;P1;durP2;ratioP2;P2;SDS_P1;SDS_P2;PMS_P1;PMS_P2;Temp;Humidity;BMP_temperature;BMP_pressure;BME280_temperature;BME280_humidity;BME280_pressure;Samples;Min_cycle;Max_cycle;Signal;HPM_P1;HPM_P2
2021/06/25 00:01:25;;;;;;;2.95;1.65;;;28.70;52.60;;;;;;5087880;28;20485;-69
2021/06/25 00:03:52;;;;;;;4.18;1.85;;;28.70;52.50;;;;;;5085773;28;20120;-69
2021/06/25 00:06:19;;;;;;;3.70;1.65;;;28.70;52.50;;;;;;5067757;28;20287;-70
2021/06/25 00:08:46;;;;;;;4.18;1.92;;;28.70;52.40;;;;;;5067076;28;20319;-69
2021/06/25 00:11:14;;;;;;;4.60;2.55;;;28.70;52.40;;;;;;5067217;28;20123;-69
2021/06/25 00:13:41;;;;;;;4.30;1.70;;;28.70;52.40;;;;;;5080129;28;20055;-69
2021/06/25 00:16:08;;;;;;;3.17;2.10;;;28.70;52.30;;;;;;5088017;28;20424;-70
2021/06/25 00:18:35;;;;;;;3.78;1.58;;;28.70;52.20;;;;;;5086240;28;20048;-69
2021/06/25 00:21:03;;;;;;;3.97;2.08;;;28.70;52.20;;;;;;5087676;28;20507;-69
2021/06/25 00:23:30;;;;;;;6.43;2.70;;;28.70;52.20;;;;;;5075042;28;20131;-69
2021/06/25 00:25:58;;;;;;;4.00;1.90;;;28.70;52.20;;;;;;5066837;28;20156;-69
2021/06/25 00:28:25;;;;;;;2.72;1.50;;;28.60;52.10;;;;;;5066976;28;20512;-70
2021/06/25 00:30:52;;;;;;;2.80;1.92;;;28.60;52.10;;;;;;5069397;28;20044;-69
2021/06/25 00:33:20;;;;;;;5.28;2.40;;;28.60;52.10;;;;;;5085676;28;20062;-69
2021/06/25 00:35:47;;;;;;;5.57;2.22;;;28.60;52.00;;;;;;5086484;28;20539;-69
2021/06/25 00:38:15;;;;;;;3.58;1.90;;;28.60;52.00;;;;;;5086696;28;20140;-69
2021/06/25 00:40:42;;;;;;;2.20;1.63;;;28.60;52.00;;;;;;5086812;28;20040;-69
2021/06/25 00:43:10;;;;;;;2.97;1.83;;;28.60;52.00;;;;;;5086383;28;20120;-69
2021/06/25 00:45:37;;;;;;;3.72;2.17;;;28.60;52.40;;;;;;5077508;28;20107;-69
2021/06/25 00:48:04;;;;;;;4.88;2.22;;;28.60;51.90;;;;;;5066514;28;20106;-69
2021/06/25 00:50:34;;;;;;;4.25;2.10;;;28.60;51.80;;;;;;5064284;28;20090;-69
2021/06/25 00:53:02;;;;;;;2.92;1.70;;;28.60;51.80;;;;;;5066039;28;20098;-69
2021/06/25 00:55:41;;;;;;;4.13;2.13;;;28.60;51.70;;;;;;5086348;28;20118;-69
2021/06/25 00:58:14;;;;;;;2.83;2.00;;;28.60;51.70;;;;;;5086903;28;20040;-69
2021/06/25 01:00:42;;;;;;;3.40;1.83;;;28.60;51.60;;;;;;5085176;28;20044;-70
2021/06/25 01:03:10;;;;;;;4.70;1.88;;;28.60;51.60;;;;;;5084259;28;20047;-69
2021/06/25 01:05:41;;;;;;;2.20;1.40;;;28.60;51.50;;;;;;5084653;28;20135;-70
2021/06/25 01:08:09;;;;;;;4.45;2.30;;;28.50;51.40;;;;;;5086124;28;20123;-70
2021/06/25 01:10:40;;;;;;;2.50;1.73;;;28.60;51.50;;;;;;5086907;28;20048;-69
2021/06/25 01:13:08;;;;;;;6.70;2.40;;;28.50;51.40;;;;;;5084812;28;20055;-69
2021/06/25 01:15:36;;;;;;;3.60;1.70;;;28.50;51.40;;;;;;5065335;28;20052;-69
2021/06/25 01:18:04;;;;;;;2.90;1.67;;;28.50;51.30;;;;;;5065951;28;20505;-70
2021/06/25 01:20:33;;;;;;;3.97;2.10;;;28.50;51.30;;;;;;5065519;28;20156;-69
2021/06/25 01:23:01;;;;;;;3.03;1.58;;;28.50;51.30;;;;;;5065870;28;20045;-69
2021/06/25 01:25:37;;;;;;;4.25;1.60;;;28.50;51.30;;;;;;5068491;28;20079;-69
2021/06/25 01:28:07;;;;;;;7.00;1.95;;;28.50;51.30;;;;;;5067987;28;20219;-69
2021/06/25 01:30:45;;;;;;;4.47;2.28;;;28.50;51.20;;;;;;5067404;28;20048;-69
2021/06/25 01:33:18;;;;;;;1.65;1.55;;;28.50;51.20;;;;;;5067638;28;20086;-69
2021/06/25 01:35:46;;;;;;;3.15;1.77;;;28.50;51.20;;;;;;5084008;28;20044;-69
2021/06/25 01:38:14;;;;;;;3.10;1.90;;;28.50;51.20;;;;;;5086022;28;20054;-70
2021/06/25 01:40:42;;;;;;;3.80;1.73;;;28.50;51.20;;;;;;5085351;28;20451;-69
2021/06/25 01:43:11;;;;;;;3.22;1.50;;;28.50;51.10;;;;;;5086066;28;20127;-69
2021/06/25 01:45:40;;;;;;;3.20;1.75;;;28.40;51.00;;;;;;5068789;28;20437;-69
2021/06/25 01:48:09;;;;;;;4.70;2.28;;;28.50;51.00;;;;;;5065735;28;20087;-69
2021/06/25 01:50:39;;;;;;;3.00;1.90;;;28.40;50.90;;;;;;5065204;28;20124;-69
2021/06/25 01:53:12;;;;;;;2.55;1.63;;;28.40;50.90;;;;;;5065189;28;20164;-69
2021/06/25 01:55:41;;;;;;;3.22;1.98;;;28.40;50.80;;;;;;5081291;28;20123;-70
2021/06/25 01:58:26;;;;;;;3.60;1.98;;;28.40;50.80;;;;;;5085859;28;20043;-69
2021/06/25 02:01:10;;;;;;;3.50;1.67;;;28.50;50.90;;;;;;5085316;28;20130;-69
2021/06/25 02:03:38;;;;;;;3.65;1.80;;;28.40;50.80;;;;;;5071138;28;20048;-69
2021/06/25 02:06:07;;;;;;;4.90;1.98;;;28.40;50.90;;;;;;5064623;28;20048;-69
2021/06/25 02:08:34;;;;;;;5.20;1.48;;;28.40;50.90;;;;;;5065218;28;20045;-69
2021/06/25 02:11:02;;;;;;;3.05;1.50;;;28.40;50.90;;;;;;5064674;28;20040;-68
2021/06/25 02:13:29;;;;;;;5.90;1.67;;;28.40;51.00;;;;;;5075135;28;20155;-69
2021/06/25 02:15:56;;;;;;;4.40;1.77;;;28.40;51.00;;;;;;5084792;28;20123;-69
2021/06/25 02:18:23;;;;;;;5.80;2.10;;;28.40;51.00;;;;;;5085637;28;20143;-69
2021/06/25 02:20:50;;;;;;;3.50;1.70;;;28.40;51.00;;;;;;5085303;28;20119;-69
2021/06/25 02:23:18;;;;;;;2.90;1.73;;;28.40;51.00;;;;;;5079377;28;20614;-69
2021/06/25 02:25:45;;;;;;;2.85;1.70;;;28.40;51.10;;;;;;5064814;28;20044;-70
2021/06/25 02:28:12;;;;;;;3.97;1.77;;;28.40;51.40;;;;;;5064036;28;20334;-69
2021/06/25 02:30:40;;;;;;;2.80;1.88;;;28.40;51.20;;;;;;5063947;28;20137;-70
2021/06/25 02:33:07;;;;;;;3.15;1.77;;;28.40;51.20;;;;;;5067630;28;20156;-70
2021/06/25 02:35:34;;;;;;;3.95;2.00;;;28.40;51.20;;;;;;5083750;28;20123;-69
2021/06/25 02:38:01;;;;;;;2.85;1.70;;;28.30;51.20;;;;;;5085119;28;20570;-69
2021/06/25 02:40:28;;;;;;;2.63;2.00;;;28.30;51.30;;;;;;5085154;28;20136;-69
2021/06/25 02:42:56;;;;;;;4.65;1.80;;;28.40;51.40;;;;;;5084078;28;20086;-69
2021/06/25 02:45:23;;;;;;;3.42;1.95;;;28.40;51.50;;;;;;5064327;28;20106;-69
2021/06/25 02:47:50;;;;;;;2.50;1.77;;;28.30;51.50;;;;;;5064941;28;20252;-69
2021/06/25 02:50:18;;;;;;;3.80;2.38;;;28.30;51.60;;;;;;5064619;28;20099;-69
2021/06/25 02:52:46;;;;;;;2.50;1.65;;;28.30;51.70;;;;;;5064883;28;20505;-69
2021/06/25 02:55:14;;;;;;;3.63;2.22;;;28.30;51.70;;;;;;5064601;28;20136;-69
2021/06/25 02:57:41;;;;;;;5.50;2.10;;;28.30;51.80;;;;;;5063128;28;20099;-69
2021/06/25 03:00:12;;;;;;;2.35;1.92;;;28.30;51.90;;;;;;5068628;28;20127;-69
2021/06/25 03:02:41;;;;;;;6.30;2.00;;;28.30;52.00;;;;;;5085288;28;20138;-69
2021/06/25 03:05:10;;;;;;;3.13;1.90;;;28.30;52.10;;;;;;5085142;28;20128;-68
2021/06/25 03:07:37;;;;;;;2.47;1.67;;;28.30;52.10;;;;;;5084351;28;20043;-69
2021/06/25 03:10:06;;;;;;;3.00;2.28;;;28.20;52.20;;;;;;5066861;28;20433;-69
2021/06/25 03:12:33;;;;;;;1.90;1.80;;;28.20;52.30;;;;;;5064419;28;20145;-69
2021/06/25 03:15:01;;;;;;;6.50;2.00;;;28.20;52.30;;;;;;5064609;28;20044;-69
2021/06/25 03:17:28;;;;;;;3.85;1.90;;;28.20;52.40;;;;;;5064397;28;20048;-69
2021/06/25 03:19:55;;;;;;;4.75;2.22;;;28.20;52.40;;;;;;5081155;28;20044;-69
2021/06/25 03:22:23;;;;;;;3.97;2.40;;;28.20;52.40;;;;;;5084688;28;20390;-69
2021/06/25 03:24:50;;;;;;;3.35;1.83;;;28.20;52.50;;;;;;5084675;28;20093;-70
2021/06/25 03:27:17;;;;;;;2.67;1.90;;;28.20;52.50;;;;;;5086842;28;20552;-69
2021/06/25 03:29:44;;;;;;;3.13;2.08;;;28.30;52.50;;;;;;5075354;28;20132;-69
2021/06/25 03:32:11;;;;;;;3.88;2.63;;;28.30;52.50;;;;;;5067638;28;20072;-69
2021/06/25 03:34:38;;;;;;;2.45;2.25;;;28.30;52.50;;;;;;5068294;28;20083;-70
2021/06/25 03:37:05;;;;;;;2.75;2.17;;;28.30;52.50;;;;;;5066520;28;20100;-69
2021/06/25 03:39:33;;;;;;;3.08;1.88;;;28.30;52.50;;;;;;5067776;28;20049;-69
2021/06/25 03:42:00;;;;;;;2.30;2.10;;;28.30;52.50;;;;;;5068071;28;20127;-69
2021/06/25 03:44:27;;;;;;;2.58;2.38;;;28.40;52.50;;;;;;5067995;28;20048;-70
2021/06/25 03:46:54;;;;;;;2.30;2.05;;;28.40;52.50;;;;;;5067297;28;20119;-70
2021/06/25 03:49:21;;;;;;;4.93;2.47;;;28.40;52.50;;;;;;5067624;28;20121;-70
2021/06/25 03:51:48;;;;;;;2.40;1.98;;;28.40;52.50;;;;;;5067980;28;20282;-69
2021/06/25 03:54:15;;;;;;;2.33;2.13;;;28.40;52.50;;;;;;5072465;28;20052;-69
2021/06/25 03:56:43;;;;;;;2.33;1.90;;;28.40;52.50;;;;;;5086377;28;20048;-70
2021/06/25 03:59:10;;;;;;;3.25;1.85;;;28.40;52.50;;;;;;5069879;28;20484;-69
2021/06/25 04:01:37;;;;;;;2.80;2.00;;;28.40;52.50;;;;;;5087937;28;20123;-69
2021/06/25 04:04:04;;;;;;;2.08;1.88;;;28.40;52.50;;;;;;5083843;28;20059;-70
2021/06/25 04:06:31;;;;;;;2.45;2.25;;;28.40;52.50;;;;;;5049710;28;20094;-69
2021/06/25 04:08:58;;;;;;;2.22;1.98;;;28.40;52.50;;;;;;5067037;28;20090;-70
2021/06/25 04:11:26;;;;;;;1.85;1.75;;;28.40;52.50;;;;;;5065791;28;20040;-69
2021/06/25 04:13:53;;;;;;;2.80;2.38;;;28.40;52.50;;;;;;5068470;28;20072;-70
2021/06/25 04:16:20;;;;;;;3.78;2.03;;;28.40;52.50;;;;;;5086623;28;20071;-70
2021/06/25 04:18:47;;;;;;;2.38;2.17;;;28.50;52.50;;;;;;5087241;28;20105;-69
2021/06/25 04:21:14;;;;;;;2.28;1.92;;;28.50;52.50;;;;;;5087272;28;20213;-70
2021/06/25 04:23:41;;;;;;;2.90;2.20;;;28.50;52.40;;;;;;5085991;28;20135;-69
2021/06/25 04:26:08;;;;;;;2.08;1.98;;;28.50;52.30;;;;;;5086974;28;20043;-70
2021/06/25 04:28:36;;;;;;;2.60;2.42;;;28.50;52.30;;;;;;5086721;28;20113;-69
2021/06/25 04:31:03;;;;;;;2.97;2.67;;;28.60;52.30;;;;;;5087482;28;20135;-70
2021/06/25 04:33:30;;;;;;;2.65;2.45;;;28.60;52.20;;;;;;5086941;28;20183;-69
2021/06/25 04:35:58;;;;;;;2.67;1.67;;;28.60;52.10;;;;;;5086604;28;20127;-69
2021/06/25 04:38:25;;;;;;;1.98;1.75;;;28.60;52.10;;;;;;5085671;28;20040;-70
2021/06/25 04:40:52;;;;;;;2.67;1.90;;;28.60;52.10;;;;;;5087035;28;20131;-69
2021/06/25 04:43:20;;;;;;;2.45;2.25;;;28.60;52.00;;;;;;5086122;28;20567;-70
2021/06/25 04:45:47;;;;;;;3.42;2.05;;;28.70;52.00;;;;;;5072385;28;20068;-69
2021/06/25 04:48:15;;;;;;;2.05;1.95;;;28.70;52.00;;;;;;5071949;28;20054;-69
2021/06/25 04:50:44;;;;;;;3.00;2.25;;;28.70;51.90;;;;;;5070853;28;20528;-70
2021/06/25 04:53:11;;;;;;;2.00;1.90;;;28.70;51.90;;;;;;5072381;28;20383;-70
2021/06/25 04:55:41;;;;;;;2.40;2.20;;;28.70;51.80;;;;;;5074304;28;20040;-69
2021/06/25 04:58:10;;;;;;;1.90;1.80;;;28.70;51.80;;;;;;5071155;28;20083;-69
2021/06/25 05:00:38;;;;;;;1.77;1.67;;;28.70;51.80;;;;;;5070076;28;20504;-69
2021/06/25 05:03:06;;;;;;;1.80;1.70;;;28.70;51.80;;;;;;5075549;28;20048;-69
2021/06/25 05:05:34;;;;;;;1.90;1.80;;;28.70;51.80;;;;;;5082254;28;20187;-68
2021/06/25 05:08:02;;;;;;;4.55;2.47;;;28.70;51.80;;;;;;5083893;28;20479;-70
2021/06/25 05:10:29;;;;;;;3.63;2.50;;;28.70;51.80;;;;;;5076275;28;20044;-69
2021/06/25 05:12:57;;;;;;;3.42;2.38;;;28.70;51.80;;;;;;5079398;28;20097;-69
2021/06/25 05:15:24;;;;;;;2.45;1.80;;;28.60;51.70;;;;;;5077293;28;20048;-70
2021/06/25 05:17:52;;;;;;;4.25;2.28;;;28.60;51.90;;;;;;5069269;28;20048;-68
2021/06/25 05:20:40;;;;;;;2.17;1.98;;;28.40;52.20;;;;;;5065019;28;20041;-70
2021/06/25 05:23:09;;;;;;;4.05;2.75;;;28.00;53.40;;;;;;5074386;28;20048;-69
2021/06/25 05:25:36;;;;;;;3.35;2.72;;;27.60;54.40;;;;;;5072141;28;20489;-69
2021/06/25 05:28:04;;;;;;;4.50;2.50;;;27.40;55.20;;;;;;5070748;28;20113;-70
2021/06/25 05:30:31;;;;;;;1.95;1.85;;;27.10;55.80;;;;;;5073045;28;20068;-67
2021/06/25 05:33:00;;;;;;;3.42;2.47;;;26.90;56.10;;;;;;5062181;28;20448;-64
2021/06/25 05:35:31;;;;;;;2.40;2.15;;;26.70;56.30;;;;;;5066101;28;20425;-66
2021/06/25 05:38:05;;;;;;;3.63;2.17;;;26.40;56.50;;;;;;5072798;28;20044;-68
2021/06/25 05:40:32;;;;;;;2.50;2.30;;;26.20;57.10;;;;;;5071771;28;20063;-69
2021/06/25 05:43:01;;;;;;;6.78;2.30;;;26.00;57.40;;;;;;5071088;28;20074;-71
2021/06/25 05:45:28;;;;;;;2.58;2.38;;;25.80;57.40;;;;;;5071899;28;20511;-69
2021/06/25 05:47:55;;;;;;;3.28;2.70;;;25.70;57.30;;;;;;5071563;28;20046;-68
2021/06/25 05:50:22;;;;;;;4.75;2.90;;;25.60;57.40;;;;;;5068987;28;20342;-68
2021/06/25 05:52:50;;;;;;;7.15;2.80;;;25.50;57.30;;;;;;5068886;28;20094;-68
2021/06/25 05:55:18;;;;;;;3.33;3.03;;;25.30;58.00;;;;;;5075103;28;20119;-69
2021/06/25 05:57:47;;;;;;;3.30;2.60;;;25.10;58.40;;;;;;5080168;28;20058;-71
2021/06/25 06:00:16;;;;;;;4.03;2.67;;;24.90;58.80;;;;;;5076080;28;20139;-70
2021/06/25 06:02:44;;;;;;;2.63;2.30;;;24.70;59.20;;;;;;5068151;28;20127;-69
2021/06/25 06:05:12;;;;;;;3.50;2.70;;;24.50;59.60;;;;;;5069099;28;20055;-69
2021/06/25 06:07:39;;;;;;;3.90;2.83;;;24.40;60.00;;;;;;5062508;28;20123;-66
2021/06/25 06:10:09;;;;;;;4.85;2.83;;;24.30;60.30;;;;;;5065213;28;20067;-72
2021/06/25 06:12:37;;;;;;;2.90;2.70;;;24.20;60.60;;;;;;5068617;28;20133;-70
2021/06/25 06:15:05;;;;;;;4.50;3.40;;;24.10;60.80;;;;;;5067861;28;20056;-73
2021/06/25 06:17:37;;;;;;;3.95;2.33;;;24.10;61.10;;;;;;5071326;28;20080;-68
2021/06/25 06:20:04;;;;;;;3.70;2.35;;;24.00;61.30;;;;;;5073174;28;20054;-67
2021/06/25 06:33:56;;;;;;;2.50;2.30;;;23.90;62.00;;;;;;5071569;28;20134;-69
2021/06/25 06:36:30;;;;;;;2.40;2.00;;;23.90;62.40;;;;;;5072797;28;20104;-69
2021/06/25 06:38:59;;;;;;;3.40;2.30;;;23.90;62.80;;;;;;5075088;28;20132;-73
2021/06/25 06:41:27;;;;;;;2.88;2.55;;;24.00;63.00;;;;;;5073590;28;20466;-72
2021/06/25 06:43:55;;;;;;;3.47;2.63;;;24.00;63.00;;;;;;5072639;28;20044;-70
2021/06/25 06:46:24;;;;;;;2.33;2.13;;;24.00;63.10;;;;;;5072195;28;20165;-74
2021/06/25 06:48:52;;;;;;;4.88;2.40;;;24.00;63.10;;;;;;5072745;28;20139;-73
2021/06/25 06:51:21;;;;;;;3.13;2.83;;;24.00;63.10;;;;;;5069840;28;20053;-76
2021/06/25 06:53:49;;;;;;;2.35;2.13;;;24.10;63.20;;;;;;5071235;28;20394;-68
2021/06/25 06:56:19;;;;;;;2.90;2.50;;;24.10;63.40;;;;;;5072556;28;20045;-67
2021/06/25 06:58:48;;;;;;;7.72;2.67;;;24.10;63.50;;;;;;5073423;28;20051;-69
2021/06/25 07:01:15;;;;;;;3.03;2.72;;;24.10;63.40;;;;;;5070029;28;20497;-73
2021/06/25 07:04:02;;;;;;;3.63;2.58;;;24.10;63.50;;;;;;5074235;28;20554;-71
2021/06/25 07:06:29;;;;;;;5.47;2.08;;;24.10;63.60;;;;;;5080496;28;20044;-72
2021/06/25 07:08:57;;;;;;;2.92;2.33;;;24.10;63.70;;;;;;5078276;28;20079;-74
2021/06/25 07:11:24;;;;;;;3.85;2.78;;;24.20;63.80;;;;;;5081102;28;20050;-74
2021/06/25 07:13:52;;;;;;;3.17;2.83;;;24.20;63.80;;;;;;5077340;28;20045;-68
2021/06/25 07:16:19;;;;;;;3.22;2.45;;;24.20;63.70;;;;;;5077085;28;20140;-67
2021/06/25 07:18:47;;;;;;;5.93;2.53;;;24.30;63.70;;;;;;5073441;28;20131;-68
2021/06/25 07:21:16;;;;;;;5.03;2.78;;;24.20;63.60;;;;;;5072972;28;20313;-72
2021/06/25 07:23:43;;;;;;;7.68;3.47;;;24.30;63.80;;;;;;5076132;28;20135;-67
2021/06/25 07:26:10;;;;;;;2.78;2.40;;;24.30;63.70;;;;;;5072541;28;20119;-69
2021/06/25 07:28:37;;;;;;;2.70;2.50;;;24.30;63.80;;;;;;5074840;28;20523;-70
2021/06/25 07:31:04;;;;;;;2.60;2.40;;;24.30;64.00;;;;;;5071474;28;20075;-70
2021/06/25 07:33:32;;;;;;;4.53;3.00;;;24.30;64.30;;;;;;5062819;28;20079;-70
2021/06/25 07:36:00;;;;;;;3.60;2.50;;;24.30;64.10;;;;;;5067506;28;20044;-72
2021/06/25 07:38:27;;;;;;;5.20;2.60;;;24.40;64.00;;;;;;5074549;28;20633;-72
2021/06/25 07:40:54;;;;;;;3.55;2.97;;;24.40;63.70;;;;;;5071527;28;20123;-66
2021/06/25 07:43:21;;;;;;;3.08;2.35;;;24.50;63.70;;;;;;5076813;28;20080;-66
2021/06/25 07:45:49;;;;;;;3.75;2.38;;;24.50;63.70;;;;;;5072029;28;20589;-71
2021/06/25 07:48:16;;;;;;;4.28;2.67;;;24.50;63.70;;;;;;5077774;28;20139;-72
2021/06/25 07:50:43;;;;;;;3.85;2.67;;;24.60;63.70;;;;;;5078326;28;20036;-72
2021/06/25 07:53:10;;;;;;;3.75;2.58;;;24.60;63.70;;;;;;5074113;28;20482;-72
2021/06/25 07:55:45;;;;;;;5.97;2.90;;;24.60;63.60;;;;;;5078436;28;20110;-72
2021/06/25 07:58:15;;;;;;;3.53;2.50;;;24.70;63.70;;;;;;5078441;28;20129;-72
2021/06/25 08:00:43;;;;;;;2.08;1.98;;;24.70;63.60;;;;;;5076506;28;20093;-71
2021/06/25 08:03:10;;;;;;;2.47;2.28;;;24.70;63.60;;;;;;5075841;28;20071;-71
2021/06/25 08:05:38;;;;;;;3.42;2.20;;;24.70;63.60;;;;;;5075042;28;20127;-72
2021/06/25 08:08:06;;;;;;;2.65;2.38;;;24.70;63.60;;;;;;5079479;28;20056;-72
2021/06/25 08:10:35;;;;;;;3.80;2.35;;;24.70;63.60;;;;;;5078732;28;20071;-71
2021/06/25 08:13:03;;;;;;;2.78;2.40;;;24.70;63.70;;;;;;5073375;28;20049;-71
2021/06/25 08:15:30;;;;;;;3.97;2.15;;;24.70;63.60;;;;;;5072852;28;20052;-71
2021/06/25 08:17:58;;;;;;;2.40;2.08;;;24.70;63.60;;;;;;5064464;28;20075;-70
2021/06/25 08:20:26;;;;;;;2.55;2.35;;;24.70;63.60;;;;;;5069501;28;20084;-71
2021/06/25 08:22:54;;;;;;;1.98;1.88;;;24.70;63.60;;;;;;5064549;28;20044;-71
2021/06/25 08:25:21;;;;;;;2.25;1.95;;;24.70;63.60;;;;;;5065935;28;20037;-72
2021/06/25 08:27:48;;;;;;;3.78;1.92;;;24.70;63.70;;;;;;5078268;28;20463;-71
2021/06/25 08:30:16;;;;;;;2.70;2.17;;;24.70;64.40;;;;;;5083824;28;20082;-72
2021/06/25 08:32:44;;;;;;;4.50;2.22;;;24.70;64.20;;;;;;5077700;28;20054;-71
2021/06/25 08:35:12;;;;;;;3.17;2.10;;;24.60;64.10;;;;;;5072985;28;20059;-71
2021/06/25 08:37:39;;;;;;;2.10;2.00;;;24.60;64.60;;;;;;5077063;28;20473;-71
2021/06/25 08:40:08;;;;;;;2.83;1.98;;;24.60;65.00;;;;;;5074256;28;20147;-71
2021/06/25 08:42:37;;;;;;;2.58;2.17;;;24.60;65.00;;;;;;5073690;28;20071;-71
2021/06/25 08:45:08;;;;;;;3.08;2.13;;;24.60;64.70;;;;;;5074939;28;20139;-72
2021/06/25 08:47:41;;;;;;;2.08;1.88;;;24.60;64.70;;;;;;5075611;28;20423;-73
2021/06/25 08:50:11;;;;;;;2.65;2.00;;;24.60;64.70;;;;;;5070910;28;20139;-71
2021/06/25 08:52:41;;;;;;;1.92;1.83;;;24.60;64.40;;;;;;5078746;28;20151;-71
2021/06/25 08:55:10;;;;;;;5.45;2.08;;;24.70;64.20;;;;;;5076616;28;20139;-71
2021/06/25 08:57:37;;;;;;;1.95;1.85;;;24.60;63.90;;;;;;5069813;28;20056;-71
2021/06/25 09:00:08;;;;;;;2.65;2.05;;;24.60;63.90;;;;;;5074718;28;20058;-70
2021/06/25 09:02:37;;;;;;;2.53;2.10;;;24.60;63.80;;;;;;5070262;28;20444;-71
2021/06/25 09:05:06;;;;;;;2.70;1.80;;;24.60;63.80;;;;;;5077340;28;20064;-71
2021/06/25 09:07:44;;;;;;;2.25;1.98;;;24.50;63.70;;;;;;5069574;28;20135;-71
2021/06/25 09:10:15;;;;;;;1.88;1.77;;;24.50;63.60;;;;;;5074015;28;20044;-73
2021/06/25 09:13:09;;;;;;;2.27;2.10;;;24.50;63.60;;;;;;5073294;28;20574;-71
2021/06/25 09:15:40;;;;;;;2.30;1.73;;;24.50;63.70;;;;;;5071738;28;20528;-71
2021/06/25 09:18:11;;;;;;;1.80;1.70;;;24.50;63.70;;;;;;5072361;28;20101;-73
2021/06/25 09:20:44;;;;;;;1.73;1.63;;;24.50;63.60;;;;;;5071580;28;20093;-70
2021/06/25 09:23:21;;;;;;;5.70;2.55;;;24.50;63.50;;;;;;5072108;28;20119;-69
2021/06/25 09:25:57;;;;;;;3.55;2.30;;;24.50;63.50;;;;;;5074607;28;20064;-70
2021/06/25 09:28:43;;;;;;;1.92;1.83;;;24.50;63.50;;;;;;5055934;28;20136;-67
2021/06/25 09:31:16;;;;;;;3.03;2.00;;;24.40;64.10;;;;;;5071005;28;20036;-68
2021/06/25 09:33:55;;;;;;;1.85;1.75;;;24.50;63.70;;;;;;5076101;28;20044;-67
2021/06/25 09:36:33;;;;;;;3.08;2.05;;;24.50;63.80;;;;;;5072482;28;20075;-68
2021/06/25 09:39:14;;;;;;;2.85;1.83;;;24.50;64.00;;;;;;5066484;28;20448;-69
2021/06/25 09:41:44;;;;;;;1.95;1.75;;;24.40;63.90;;;;;;5070011;28;20131;-69
2021/06/25 09:44:17;;;;;;;2.28;1.90;;;24.50;63.90;;;;;;5063318;28;20048;-68
2021/06/25 09:46:48;;;;;;;2.35;1.65;;;24.50;63.80;;;;;;5063389;28;20121;-70
2021/06/25 09:49:22;;;;;;;2.83;2.20;;;24.50;63.70;;;;;;5065416;28;20053;-70
2021/06/25 09:51:55;;;;;;;1.83;1.60;;;24.50;64.00;;;;;;5070867;28;20485;-72
2021/06/25 09:54:23;;;;;;;2.55;2.00;;;24.50;63.80;;;;;;5070695;28;20051;-72
2021/06/25 09:57:12;;;;;;;2.20;1.98;;;24.60;63.50;;;;;;5073197;28;20090;-70
2021/06/25 10:00:08;;;;;;;1.55;1.42;;;24.70;63.20;;;;;;5074647;28;20051;-72
2021/06/25 10:02:29;;;;;;;1.70;1.60;;;24.70;63.20;;;;;;5072259;28;20036;-72
2021/06/25 10:05:13;;;;;;;1.80;1.70;;;24.80;63.40;;;;;;5071475;28;20135;-71
2021/06/25 10:07:41;;;;;;;1.77;1.50;;;24.90;62.90;;;;;;5075170;28;20139;-73
2021/06/25 10:10:10;;;;;;;1.70;1.60;;;24.90;62.60;;;;;;5073460;28;20045;-72
2021/06/25 10:12:40;;;;;;;2.55;2.33;;;25.00;62.40;;;;;;5072471;28;20091;-73
2021/06/25 10:15:08;;;;;;;;;;;24.90;62.10;;;;;;5075802;28;20045;-74
2021/06/25 10:17:36;;;;;;;1.95;1.60;;;25.00;61.90;;;;;;5073508;28;19946;-71
2021/06/25 10:20:10;;;;;;;1.50;1.40;;;25.00;61.70;;;;;;5069673;28;20568;-70
2021/06/25 10:22:38;;;;;;;1.70;1.50;;;25.00;61.60;;;;;;5071838;28;20093;-69
2021/06/25 10:25:08;;;;;;;2.20;2.00;;;25.00;61.50;;;;;;5070524;28;20080;-69
2021/06/25 10:27:36;;;;;;;3.40;1.73;;;25.00;61.30;;;;;;5072048;28;20052;-69
2021/06/25 10:30:04;;;;;;;3.35;1.85;;;25.00;61.40;;;;;;5072435;28;20087;-69
2021/06/25 10:32:32;;;;;;;3.78;1.77;;;25.10;61.20;;;;;;5072739;28;20051;-70
2021/06/25 10:35:00;;;;;;;2.30;2.10;;;25.10;61.00;;;;;;5070392;28;20579;-70
2021/06/25 10:37:28;;;;;;;2.00;1.80;;;25.10;60.80;;;;;;5071427;28;20051;-70
2021/06/25 10:39:57;;;;;;;2.45;1.67;;;25.10;60.80;;;;;;5078964;28;20075;-72
2021/06/25 10:42:41;;;;;;;3.65;1.45;;;25.10;61.20;;;;;;5074897;28;20080;-71
2021/06/25 10:45:12;;;;;;;1.83;1.70;;;25.10;61.40;;;;;;5073559;28;20166;-72
2021/06/25 10:47:53;;;;;;;2.50;1.73;;;25.10;61.50;;;;;;5073935;28;20072;-72
2021/06/25 10:50:24;;;;;;;1.92;1.75;;;25.10;61.50;;;;;;5072965;28;20079;-71
2021/06/25 10:53:17;;;;;;;4.10;1.50;;;25.10;61.20;;;;;;5064189;28;20075;-72
2021/06/25 10:56:03;;;;;;;2.88;1.92;;;25.10;61.30;;;;;;5072296;28;20127;-72
2021/06/25 10:58:31;;;;;;;2.15;2.00;;;25.10;61.40;;;;;;5079257;28;20068;-70
2021/06/25 11:01:01;;;;;;;3.08;1.70;;;25.10;61.30;;;;;;5079053;28;20048;-72
2021/06/25 11:03:41;;;;;;;2.20;1.73;;;25.10;61.60;;;;;;5076471;28;20896;-70
2021/06/25 11:06:28;;;;;;;;;;;25.10;61.80;;;;;;5071325;28;20113;-72
2021/06/25 11:09:05;;;;;;;2.65;2.00;;;25.10;61.80;;;;;;5071237;28;19967;-67
2021/06/25 11:11:33;;;;;;;3.17;2.08;;;25.20;62.10;;;;;;5074542;28;20503;-65
2021/06/25 11:14:01;;;;;;;3.00;2.10;;;25.20;62.00;;;;;;5070649;28;20561;-68
2021/06/25 11:16:28;;;;;;;2.40;2.13;;;25.20;61.80;;;;;;5064833;28;20489;-72
2021/06/25 11:18:59;;;;;;;2.25;2.10;;;25.20;61.90;;;;;;5069110;28;20083;-72
2021/06/25 11:21:45;;;;;;;;;;;25.20;61.80;;;;;;5073713;28;20106;-69
2021/06/25 11:24:32;;;;;;;2.88;1.77;;;25.20;61.70;;;;;;5068043;28;19971;-71
2021/06/25 11:27:00;;;;;;;2.47;2.13;;;25.20;61.60;;;;;;5078453;28;20139;-67
2021/06/25 11:29:49;;;;;;;3.17;1.63;;;25.20;61.50;;;;;;5071285;28;20131;-69
2021/06/25 11:32:28;;;;;;;1.75;1.65;;;25.20;61.20;;;;;;5071183;28;20058;-73
2021/06/25 11:34:56;;;;;;;1.85;1.55;;;25.20;61.30;;;;;;5072505;28;20143;-68
2021/06/25 11:37:56;;;;;;;4.25;1.83;;;25.20;61.30;;;;;;5068250;28;20475;-73
2021/06/25 11:40:47;;;;;;;3.72;2.13;;;25.20;61.20;;;;;;5070399;28;20481;-72
2021/06/25 11:43:16;;;;;;;3.53;2.22;;;25.20;61.20;;;;;;5069467;28;20127;-72
2021/06/25 11:45:49;;;;;;;5.22;2.58;;;25.20;61.10;;;;;;5073478;28;20048;-71
2021/06/25 11:48:20;;;;;;;7.07;2.47;;;25.20;61.10;;;;;;5071149;28;20040;-70
2021/06/25 11:50:56;;;;;;;5.20;2.60;;;25.20;61.20;;;;;;5068795;28;20120;-69
2021/06/25 11:53:25;;;;;;;2.60;2.13;;;25.30;61.00;;;;;;5067193;28;20099;-70
2021/06/25 11:55:53;;;;;;;3.63;2.65;;;25.30;61.10;;;;;;5071963;28;20059;-68
2021/06/25 11:58:21;;;;;;;3.63;2.05;;;25.30;61.80;;;;;;5069878;28;20117;-70
2021/06/25 12:00:59;;;;;;;2.33;1.80;;;25.30;61.80;;;;;;5065970;28;20500;-70
2021/06/25 12:03:27;;;;;;;2.85;2.08;;;25.30;61.40;;;;;;5066399;28;20109;-69
2021/06/25 12:06:04;;;;;;;2.60;2.40;;;25.30;61.50;;;;;;5070200;28;20108;-73
2021/06/25 12:08:31;;;;;;;2.78;2.30;;;25.30;61.00;;;;;;5070664;28;20045;-72
2021/06/25 12:11:00;;;;;;;5.22;2.55;;;25.40;60.80;;;;;;5072849;28;20044;-72
2021/06/25 12:13:29;;;;;;;7.30;2.90;;;25.40;60.60;;;;;;5070650;28;20144;-73
2021/06/25 12:15:56;;;;;;;4.43;2.22;;;25.40;60.40;;;;;;5078180;28;20481;-73
2021/06/25 12:18:26;;;;;;;4.05;2.13;;;25.40;60.20;;;;;;5077770;28;20508;-70
2021/06/25 12:21:08;;;;;;;2.25;1.85;;;25.40;60.10;;;;;;5075213;28;20466;-70
2021/06/25 12:23:37;;;;;;;5.75;2.70;;;25.40;60.10;;;;;;5079231;28;20066;-70
2021/06/25 12:26:16;;;;;;;3.35;2.83;;;25.40;60.10;;;;;;5079605;28;20453;-70
2021/06/25 12:28:43;;;;;;;5.57;2.25;;;25.40;60.10;;;;;;5077099;28;20127;-69
2021/06/25 12:31:15;;;;;;;4.18;2.65;;;25.40;60.10;;;;;;5078530;28;20075;-70
2021/06/25 12:33:43;;;;;;;5.32;2.42;;;25.40;60.10;;;;;;5071304;28;20063;-70
2021/06/25 12:36:14;;;;;;;5.50;2.50;;;25.40;60.10;;;;;;5078386;28;20047;-72
2021/06/25 12:38:43;;;;;;;3.33;2.08;;;25.40;60.20;;;;;;5078011;28;20123;-72
2021/06/25 12:41:10;;;;;;;7.78;2.38;;;25.40;60.40;;;;;;5069481;28;20387;-72
2021/06/25 12:43:41;;;;;;;2.45;2.25;;;25.40;60.30;;;;;;5067729;28;20062;-70
2021/06/25 12:46:16;;;;;;;3.75;2.20;;;25.40;60.40;;;;;;5067286;28;20055;-70
2021/06/25 12:48:58;;;;;;;2.55;2.35;;;25.40;60.50;;;;;;5077168;28;20048;-70
2021/06/25 12:51:27;;;;;;;5.25;2.22;;;25.40;60.60;;;;;;5076225;28;20548;-72
2021/06/25 12:53:57;;;;;;;2.28;2.05;;;25.40;60.80;;;;;;5079062;28;20123;-69
2021/06/25 12:56:28;;;;;;;5.65;2.85;;;25.40;60.70;;;;;;5075416;28;20132;-72
2021/06/25 12:59:15;;;;;;;4.13;2.38;;;25.40;60.80;;;;;;5077506;28;20049;-72
2021/06/25 13:01:44;;;;;;;2.92;2.60;;;25.40;60.90;;;;;;5088106;28;20744;-72
2021/06/25 13:04:30;;;;;;;2.53;1.90;;;25.40;61.20;;;;;;5088439;28;20048;-72
2021/06/25 13:07:07;;;;;;;3.22;2.60;;;25.40;61.10;;;;;;5087687;28;20087;-72
2021/06/25 13:09:40;;;;;;;3.13;2.05;;;25.40;60.90;;;;;;5088764;28;20485;-72
2021/06/25 13:12:14;;;;;;;4.63;2.50;;;25.30;60.90;;;;;;5088520;28;20130;-72
2021/06/25 13:14:47;;;;;;;2.40;2.20;;;25.40;60.90;;;;;;5088741;28;20054;-71